Time;durP1;ratioP1;P1;durP2;ratioP2;P2;SDS_P1;SDS_P2;PMS_P1;PMS_P2;Temp;Humidity;BMP_temperature;BMP_pressure;BME280_temperature;BME280_humidity;BME280_pressure;Samples;Min_cycle;Max_cycle;Signal;HPM_P1;HPM_P2
2021/11/09 00:02:10;;;;;;;;;;;;;;;5.92;100.00;98827.41;4946082;29;20063;-63
2021/11/09 00:04:55;;;;;;;1.10;0.70;;;;;;;5.97;100.00;98825.59;4946079;29;19949;-65
2021/11/09 00:07:52;;;;;;;1.75;0.40;;;;;;;5.89;100.00;98822.22;4934900;29;20098;-61
2021/11/09 00:10:36;;;;;;;0.60;0.60;;;;;;;5.93;100.00;98824.75;4930139;29;20058;-62
2021/11/09 00:13:22;;;;;;;0.68;0.43;;;;;;;5.94;100.00;98830.91;4948013;29;20062;-63
2021/11/09 00:16:07;;;;;;;0.98;0.60;;;;;;;5.90;100.00;98834.47;4943106;29;20109;-64
2021/11/09 00:18:52;;;;;;;1.67;0.60;;;;;;;5.89;100.00;98838.84;4920605;29;20106;-63
2021/11/09 00:21:36;;;;;;;0.98;0.60;;;;;;;5.79;100.00;98837.25;4946777;29;20121;-64
2021/11/09 00:24:21;;;;;;;2.72;0.75;;;;;;;5.83;100.00;98835.47;4930392;29;20154;-61
2021/11/09 00:27:05;;;;;;;1.33;0.80;;;;;;;5.80;100.00;98841.59;4944032;29;20054;-62
2021/11/09 00:29:50;;;;;;;2.58;0.77;;;;;;;5.83;100.00;98835.47;4934234;29;20078;-64
2021/11/09 00:32:37;;;;;;;3.38;0.90;;;;;;;5.92;100.00;98848.47;4932420;29;20062;-60
2021/11/09 00:35:25;;;;;;;0.88;0.60;;;;;;;6.07;100.00;98835.06;4916670;29;20090;-62
2021/11/09 00:38:12;;;;;;;5.47;0.85;;;;;;;5.92;100.00;98843.19;4946933;28;20054;-60
2021/11/09 00:40:58;;;;;;;1.27;0.80;;;;;;;5.95;100.00;98846.66;4947232;29;20185;-61
2021/11/09 00:43:43;;;;;;;1.73;0.70;;;;;;;5.93;100.00;98848.44;4928558;29;20093;-62
2021/11/09 00:46:27;;;;;;;;;;;;;;;5.88;100.00;98850.28;4930356;29;20158;-62
2021/11/09 00:49:12;;;;;;;1.15;0.80;;;;;;;5.85;100.00;98847.69;4930492;29;19981;-63
2021/11/09 00:51:57;;;;;;;1.33;1.10;;;;;;;5.87;100.00;98852.94;4946323;29;20110;-62
2021/11/09 00:54:41;;;;;;;1.50;0.75;;;;;;;5.93;100.00;98844.97;4929638;29;20061;-62
2021/11/09 00:57:27;;;;;;;1.08;0.70;;;;;;;5.94;100.00;98851.94;4944646;29;20467;-63
2021/11/09 01:00:16;;;;;;;2.08;0.80;;;;;;;6.02;100.00;98863.22;4945605;29;20066;-62
2021/11/09 01:03:04;;;;;;;2.33;0.90;;;;;;;6.02;100.00;98860.59;4942704;28;20249;-63
2021/11/09 01:05:49;;;;;;;1.08;0.90;;;;;;;6.01;100.00;98853.59;4929525;29;20069;-62
2021/11/09 01:08:34;;;;;;;;;;;;;;;5.93;100.00;98861.59;4945654;29;20122;-61
2021/11/09 01:11:19;;;;;;;0.95;0.70;;;;;;;5.93;100.00;98869.47;4949010;28;19929;-61
2021/11/09 01:14:06;;;;;;;1.85;0.70;;;;;;;5.97;100.00;98872.94;4931607;29;20055;-62
2021/11/09 01:16:52;;;;;;;1.52;0.70;;;;;;;5.90;100.00;98879.19;4931658;29;20174;-64
2021/11/09 01:19:38;;;;;;;3.30;0.93;;;;;;;5.88;100.00;98873.94;4944023;29;20050;-64
2021/11/09 01:22:23;;;;;;;1.70;0.80;;;;;;;5.78;100.00;98888.13;4944948;29;20101;-63
2021/11/09 01:25:10;;;;;;;1.90;0.90;;;;;;;5.71;100.00;98870.69;4929503;29;20054;-64
2021/11/09 01:27:57;;;;;;;0.82;0.70;;;;;;;5.67;100.00;98878.63;4931207;29;20621;-61
2021/11/09 01:30:43;;;;;;;2.33;0.80;;;;;;;5.48;100.00;98879.78;4919827;29;20372;-64
2021/11/09 01:33:29;;;;;;;1.20;0.80;;;;;;;5.59;100.00;98886.66;4918907;29;20062;-59
2021/11/09 01:36:14;;;;;;;0.95;0.70;;;;;;;5.63;100.00;98877.81;4926420;29;20122;-59
2021/11/09 01:38:59;;;;;;;2.22;1.00;;;;;;;5.63;100.00;98893.59;4947406;29;20519;-61
2021/11/09 01:41:45;;;;;;;;;;;;;;;5.59;100.00;98905.06;4935038;29;20776;-61
2021/11/09 01:44:30;;;;;;;3.78;1.35;;;;;;;5.55;100.00;98906.00;4934179;28;20402;-61
2021/11/09 01:47:15;;;;;;;1.70;1.15;;;;;;;5.55;100.00;98903.34;4928514;29;20172;-61
2021/11/09 01:50:00;;;;;;;5.28;1.40;;;;;;;5.63;100.00;98911.13;4926618;29;20115;-63
2021/11/09 01:52:45;;;;;;;3.17;1.30;;;;;;;5.66;100.00;98905.84;4931662;28;20138;-63
2021/11/09 01:55:32;;;;;;;3.80;1.00;;;;;;;5.68;100.00;98907.53;4945923;29;20118;-62
2021/11/09 01:58:19;;;;;;;8.15;1.20;;;;;;;5.62;100.00;98912.88;4940090;28;20061;-65
2021/11/09 02:01:10;;;;;;;2.50;1.20;;;;;;;5.67;100.00;98913.69;4929047;29;20098;-64
2021/11/09 02:03:59;;;;;;;2.80;1.20;;;;;;;5.62;100.00;98912.88;4929145;29;20391;-65
2021/11/09 02:06:43;;;;;;;1.50;0.90;;;;;;;5.53;100.00;98933.19;4926254;29;20113;-61
2021/11/09 02:09:28;;;;;;;1.88;1.35;;;;;;;5.62;100.00;98925.16;4936882;29;20075;-61
2021/11/09 02:12:12;;;;;;;2.40;1.00;;;;;;;5.67;100.00;98932.09;4943392;29;20530;-64
2021/11/09 02:14:59;;;;;;;2.72;1.08;;;;;;;5.50;100.00;98928.81;4933168;29;20133;-61
2021/11/09 02:17:46;;;;;;;3.03;1.20;;;;;;;5.35;100.00;98936.94;4933562;29;20073;-61
2021/11/09 02:20:30;;;;;;;1.58;0.90;;;;;;;5.35;100.00;98942.19;4917159;29;20082;-62
2021/11/09 02:23:15;;;;;;;2.47;1.05;;;;;;;5.46;100.00;98942.03;4933361;29;20046;-62
2021/11/09 02:26:01;;;;;;;3.55;1.80;;;;;;;5.41;100.00;98946.50;4937877;28;20137;-63
2021/11/09 02:28:48;;;;;;;2.65;1.40;;;;;;;5.55;100.00;98955.06;4929711;29;20846;-62
2021/11/09 02:31:33;;;;;;;2.00;1.08;;;;;;;5.64;100.00;98965.44;4929791;29;20083;-61
2021/11/09 02:34:18;;;;;;;1.63;1.00;;;;;;;5.60;100.00;98959.38;4944490;29;20075;-61
2021/11/09 02:37:02;;;;;;;2.20;0.90;;;;;;;5.61;100.00;98970.78;4959725;28;20446;-63
2021/11/09 02:39:47;;;;;;;2.35;0.90;;;;;;;5.55;100.00;98973.47;4907483;29;20487;-59
2021/11/09 02:42:40;;;;;;;1.52;0.60;;;;;;;5.48;100.00;98996.34;4937156;28;20054;-63
2021/11/09 02:49:03;;;;;;;0.50;0.50;;;;;;;5.48;100.00;99009.47;4933701;29;20566;-65
2021/11/09 02:52:12;;;;;;;0.60;0.60;;;;;;;5.32;100.00;99012.28;4921541;29;20138;-62
2021/11/09 02:55:10;;;;;;;0.80;0.60;;;;;;;5.40;100.00;99018.34;4926695;29;20073;-62
2021/11/09 02:58:24;;;;;;;1.15;0.70;;;;;;;5.60;100.00;99033.00;4942393;28;20134;-64
2021/11/09 03:01:12;;;;;;;1.05;0.60;;;;;;;5.75;100.00;99037.19;4929784;29;20050;-62
2021/11/09 03:06:52;;;;;;;0.93;0.60;;;;;;;5.75;100.00;99052.97;4936934;29;20065;-62
2021/11/09 03:10:09;;;;;;;1.25;0.63;;;;;;;5.59;100.00;99049.66;4927041;29;20143;-66
2021/11/09 03:12:54;;;;;;;;;;;;;;;5.57;100.00;99061.09;4934581;29;20082;-64
2021/11/09 03:15:38;;;;;;;1.83;0.55;;;;;;;5.55;100.00;99066.38;4934504;28;19929;-62
2021/11/09 03:18:24;;;;;;;0.70;0.40;;;;;;;5.49;100.00;99079.56;4942279;29;20574;-63
2021/11/09 03:47:49;;;;;;;1.38;0.77;;;;;;;5.08;100.00;99161.41;4923011;29;20047;-64
2021/11/09 03:50:38;;;;;;;2.40;1.38;;;;;;;4.94;100.00;99168.56;4928476;29;20538;-64
2021/11/09 03:53:25;;;;;;;3.08;1.38;;;;;;;4.95;100.00;99178.16;4949428;28;20055;-61
2021/11/09 03:56:22;;;;;;;1.38;0.80;;;;;;;5.00;100.00;99179.00;4945990;29;20467;-64
2021/11/09 03:59:13;;;;;;;2.47;0.70;;;;;;;5.12;100.00;99190.31;4920977;29;20419;-66
2021/11/09 04:04:56;;;;;;;2.50;0.60;;;;;;;5.13;100.00;99197.31;4932961;29;20113;-65
2021/11/09 04:11:00;;;;;;;1.50;1.00;;;;;;;5.08;100.00;99221.00;4908246;29;20199;-63
2021/11/09 04:13:56;;;;;;;1.17;0.70;;;;;;;5.20;100.00;99215.66;4894794;29;20082;-62
2021/11/09 04:19:57;;;;;;;0.60;0.50;;;;;;;5.03;100.00;99233.31;4908001;29;20059;-64
2021/11/09 04:32:12;;;;;;;1.38;0.80;;;;;;;4.93;100.00;99261.38;4907904;29;20059;-64
2021/11/09 04:38:53;;;;;;;2.45;1.00;;;;;;;4.83;100.00;99298.22;4906990;29;20082;-62
2021/11/09 04:42:52;;;;;;;0.85;0.32;;;;;;;4.58;100.00;99301.78;4908130;29;20139;-65
2021/11/09 05:08:35;;;;;;;1.02;0.50;;;;;;;4.84;100.00;99387.47;4927065;29;20101;-63
2021/11/09 05:11:19;;;;;;;2.15;0.80;;;;;;;4.82;100.00;99393.63;4948666;29;20093;-62
2021/11/09 05:14:11;;;;;;;0.95;0.70;;;;;;;4.70;100.00;99397.16;4930285;29;20147;-60
2021/11/09 05:16:56;;;;;;;1.88;1.17;;;;;;;4.90;100.00;99407.59;4930154;29;20629;-65
2021/11/09 05:19:40;;;;;;;0.70;0.40;;;;;;;4.69;100.00;99405.94;4935127;29;20391;-66
2021/11/09 05:22:24;;;;;;;1.08;0.60;;;;;;;4.60;100.00;99421.69;4931687;29;20058;-61
2021/11/09 05:25:09;;;;;;;0.80;0.60;;;;;;;4.54;100.00;99423.44;4942096;28;20151;-62
2021/11/09 05:27:55;;;;;;;2.08;0.50;;;;;;;4.61;100.00;99447.06;4940255;29;20531;-61
2021/11/09 05:30:45;;;;;;;1.27;0.80;;;;;;;4.66;100.00;99444.44;4914987;29;20472;-60
2021/11/09 05:33:32;;;;;;;1.42;0.60;;;;;;;4.73;100.00;99457.56;4913576;29;20054;-65
2021/11/09 05:36:17;;;;;;;1.27;0.70;;;;;;;4.75;100.00;99466.28;4921977;29;20066;-63
2021/11/09 05:39:30;;;;;;;2.47;0.95;;;;;;;4.77;100.00;99474.19;4933334;29;20106;-60
2021/11/09 05:42:16;;;;;;;1.15;0.80;;;;;;;4.66;100.00;99492.56;4933197;29;20057;-65
2021/11/09 05:45:01;;;;;;;1.85;0.90;;;;;;;4.42;100.00;99500.47;4932524;29;20214;-61
2021/11/09 05:47:45;;;;;;;1.33;0.90;;;;;;;4.45;100.00;99502.22;4938702;28;20065;-64
2021/11/09 05:50:31;;;;;;;1.65;0.70;;;;;;;4.38;100.00;99500.44;4936059;29;20062;-65
2021/11/09 05:53:16;;;;;;;2.33;0.40;;;;;;;4.34;100.00;99517.06;4935570;29;20050;-64
2021/11/09 05:56:05;;;;;;;1.00;0.47;;;;;;;4.40;100.00;99522.34;4926855;29;20073;-62
2021/11/09 05:58:51;;;;;;;1.85;0.40;;;;;;;4.16;100.00;99535.44;4933367;29;20136;-65
2021/11/09 06:01:35;;;;;;;;;;;;;;;4.21;100.00;99539.81;4934337;29;20098;-69
2021/11/09 06:04:20;;;;;;;2.50;0.28;;;;;;;4.13;100.00;99548.53;4917923;29;19924;-64
2021/11/09 06:07:06;;;;;;;0.88;0.50;;;;;;;4.32;100.00;99553.81;4933873;29;20101;-62
2021/11/09 06:09:51;;;;;;;1.60;0.63;;;;;;;4.45;100.00;99557.34;4941430;29;20102;-66
2021/11/09 06:12:35;;;;;;;2.03;0.70;;;;;;;4.54;100.00;99566.09;4933261;29;20059;-63
2021/11/09 06:15:20;;;;;;;1.02;0.60;;;;;;;4.40;100.00;99566.97;4915603;28;20427;-62
2021/11/09 06:18:05;;;;;;;1.05;0.68;;;;;;;4.51;100.00;99581.84;4946940;29;20531;-64
2021/11/09 06:20:50;;;;;;;0.82;0.30;;;;;;;4.36;100.00;99591.44;4946860;29;20050;-65
2021/11/09 06:23:34;;;;;;;0.70;0.30;;;;;;;4.32;100.00;99611.53;4943311;29;20527;-63
2021/11/09 06:26:21;;;;;;;0.52;0.40;;;;;;;4.12;100.00;99609.75;4930860;28;20534;-62
2021/11/09 06:29:07;;;;;;;0.43;0.30;;;;;;;4.24;100.00;99615.03;4917713;29;20126;-64
2021/11/09 06:31:52;;;;;;;1.20;0.30;;;;;;;4.32;100.00;99623.81;4906509;29;20095;-63
2021/11/09 06:34:37;;;;;;;0.43;0.30;;;;;;;4.50;100.00;99621.22;4933228;29;20073;-64
2021/11/09 06:37:22;;;;;;;2.70;0.40;;;;;;;4.56;100.00;99635.22;4932797;29;20116;-61
2021/11/09 06:40:09;;;;;;;0.80;0.40;;;;;;;4.32;100.00;99645.66;4911842;29;20518;-62
2021/11/09 06:42:54;;;;;;;1.20;0.70;;;;;;;4.25;100.00;99643.91;4928778;29;20094;-66
2021/11/09 06:45:38;;;;;;;1.67;0.55;;;;;;;4.30;100.00;99657.91;4929184;29;20049;-62
2021/11/09 06:48:24;;;;;;;1.17;0.65;;;;;;;4.40;100.00;99659.69;4925251;29;20094;-62
2021/11/09 06:51:09;;;;;;;2.08;0.95;;;;;;;4.41;100.00;99668.44;4939238;29;20058;-63
2021/11/09 06:53:53;;;;;;;1.60;0.82;;;;;;;4.58;100.00;99670.25;4925809;29;20961;-63
2021/11/09 06:56:38;;;;;;;1.43;1.00;;;;;;;4.45;100.00;99686.84;4934842;29;20054;-64
2021/11/09 06:59:23;;;;;;;1.75;0.80;;;;;;;4.56;100.00;99685.09;4906860;29;20204;-63
2021/11/09 07:02:08;;;;;;;2.58;0.90;;;;;;;4.71;100.00;99708.78;4943620;29;20181;-66
2021/11/09 07:04:54;;;;;;;1.77;0.90;;;;;;;4.68;100.00;99716.63;4936180;29;20530;-60
2021/11/09 07:07:42;;;;;;;2.38;1.15;;;;;;;4.69;100.00;99717.53;4945819;29;20089;-61
2021/11/09 07:10:27;;;;;;;3.45;1.30;;;;;;;4.66;100.00;99731.53;4932350;29;20423;-67
2021/11/09 07:13:12;;;;;;;2.20;1.30;;;;;;;4.54;100.00;99731.50;4939206;29;20081;-64
2021/11/09 07:15:57;;;;;;;4.40;1.55;;;;;;;4.36;100.00;99748.94;4909804;29;20081;-64
2021/11/09 07:18:42;;;;;;;1.77;1.20;;;;;;;4.34;100.00;99729.66;4946517;29;20075;-63
2021/11/09 07:21:27;;;;;;;3.00;1.40;;;;;;;4.20;100.00;99761.09;4924319;29;20511;-64
2021/11/09 07:24:14;;;;;;;3.45;1.20;;;;;;;4.08;100.00;99750.53;4945001;29;20143;-62
2021/11/09 07:26:59;;;;;;;5.15;1.50;;;;;;;4.08;100.00;99761.00;4944760;28;20110;-62
2021/11/09 07:29:47;;;;;;;2.70;1.58;;;;;;;4.07;100.00;99787.25;4931700;29;20042;-62
2021/11/09 07:32:32;;;;;;;4.45;1.52;;;;;;;4.31;100.00;99790.00;4919992;29;20062;-63
2021/11/09 07:35:17;;;;;;;3.30;1.73;;;;;;;4.37;100.00;99808.41;4930819;29;20062;-66
2021/11/09 07:38:01;;;;;;;2.35;1.70;;;;;;;4.46;100.00;99805.81;4932749;29;20058;-64
2021/11/09 07:40:47;;;;;;;3.28;1.95;;;;;;;4.39;100.00;99819.78;4944248;28;20511;-59
2021/11/09 07:43:31;;;;;;;3.72;2.00;;;;;;;4.37;100.00;99825.06;4941530;29;20094;-58
2021/11/09 07:46:16;;;;;;;2.20;1.40;;;;;;;4.49;100.00;99847.84;4927765;29;20098;-63
2021/11/09 07:49:02;;;;;;;3.58;1.80;;;;;;;4.22;100.00;99851.19;4947491;28;20054;-60
2021/11/09 07:51:47;;;;;;;3.53;1.70;;;;;;;4.07;100.00;99863.31;4918771;29;20055;-64
2021/11/09 07:54:35;;;;;;;2.63;1.58;;;;;;;3.91;100.00;99867.59;4933725;29;20434;-65
2021/11/09 07:57:20;;;;;;;3.88;1.67;;;;;;;4.03;100.00;99885.16;4933022;29;20138;-62
2021/11/09 08:00:19;;;;;;;;;;;;;;;4.09;100.00;99885.22;4930524;29;20050;-63
2021/11/09 08:03:14;;;;;;;3.50;1.63;;;;;;;3.96;100.00;99899.09;4925569;29;19965;-66
2021/11/09 08:09:16;;;;;;;2.10;1.08;;;;;;;3.61;100.00;99903.16;4942173;29;20059;-64
2021/11/09 08:12:03;;;;;;;3.72;1.30;;;;;;;3.69;100.00;99920.69;4932363;29;20113;-63
2021/11/09 08:14:48;;;;;;;2.63;1.33;;;;;;;3.62;100.00;99918.91;4942092;28;20065;-64
2021/11/09 08:17:33;;;;;;;2.20;1.15;;;;;;;3.72;100.00;99922.50;4947623;29;20061;-62
2021/11/09 08:20:18;;;;;;;;;;;;;;;3.52;100.00;99942.38;4948381;29;20056;-63
2021/11/09 08:23:04;;;;;;;3.85;1.30;;;;;;;3.47;100.00;99942.34;4933074;28;19978;-64
2021/11/09 08:25:48;;;;;;;3.45;1.10;;;;;;;3.63;100.00;99940.72;4938071;29;20061;-61
2021/11/09 08:28:34;;;;;;;2.35;0.90;;;;;;;3.55;100.00;99956.41;4926741;28;20153;-61
2021/11/09 08:31:22;;;;;;;2.50;0.90;;;;;;;3.51;100.00;99977.31;4933477;29;20557;-62
2021/11/09 08:34:06;;;;;;;2.83;1.00;;;;;;;3.72;100.00;99981.03;4934445;29;20075;-65
2021/11/09 08:36:51;;;;;;;4.35;1.35;;;;;;;3.83;100.00;99989.00;4935644;29;20519;-64
2021/11/09 08:39:41;;;;;;;2.03;1.00;;;;;;;3.65;100.00;99975.72;4946503;29;20102;-61
2021/11/09 08:45:20;;;;;;;3.75;1.30;;;;;;;3.55;100.00;99994.81;4934135;29;20085;-62
2021/11/09 08:48:13;;;;;;;2.43;1.20;;;;;;;3.60;100.00;100006.25;4931580;29;20062;-65
2021/11/09 08:50:57;;;;;;;4.05;1.60;;;;;;;3.74;100.00;100017.78;4947355;29;20098;-62
2021/11/09 08:53:50;;;;;;;4.85;1.52;;;;;;;3.80;100.00;100015.22;4943846;29;20054;-63
2021/11/09 09:05:27;;;;;;;5.03;1.30;;;;;;;3.40;100.00;100052.31;4949394;29;20123;-63
2021/11/09 09:08:12;;;;;;;6.40;1.20;;;;;;;3.18;100.00;100058.13;4946261;29;20058;-63
2021/11/09 09:10:56;;;;;;;4.72;1.17;;;;;;;3.35;100.00;100060.13;4948516;29;20054;-63
2021/11/09 09:13:41;;;;;;;2.90;1.40;;;;;;;3.34;100.00;100058.38;4946187;29;20069;-67
2021/11/09 09:16:27;;;;;;;1.90;0.98;;;;;;;3.22;100.00;100052.97;4949815;29;20475;-66
2021/11/09 09:19:17;;;;;;;2.47;1.00;;;;;;;3.16;100.00;100080.78;4931439;29;20476;-62
2021/11/09 09:30:47;;;;;;;1.95;1.00;;;;;;;3.52;100.00;100102.28;4921012;29;20045;-64
2021/11/09 09:57:43;;;;;;;3.83;1.52;;;;;;;3.74;100.00;100127.91;4925771;29;20055;-65
2021/11/09 10:00:28;;;;;;;3.03;1.10;;;;;;;4.05;100.00;100128.31;4929076;29;20090;-66
2021/11/09 10:03:13;;;;;;;;;;;;;;;5.45;100.00;100136.56;4930319;29;20089;-66
2021/11/09 10:06:06;;;;;;;3.72;1.10;;;;;;;6.69;100.00;100147.59;4927528;29;19925;-66
2021/11/09 10:08:53;;;;;;;2.17;1.10;;;;;;;7.61;100.00;100166.03;4922318;29;20536;-67
2021/11/09 10:11:39;;;;;;;4.85;0.82;;;;;;;8.75;95.80;100158.53;4907904;29;20079;-67
2021/11/09 10:14:34;;;;;;;3.03;1.02;;;;;;;7.68;92.34;100166.00;4925076;29;20150;-65
2021/11/09 10:17:27;;;;;;;6.05;1.40;;;;;;;7.94;92.31;100165.94;4926980;29;20095;-69
2021/11/09 10:20:19;;;;;;;1.83;1.00;;;;;;;9.57;85.58;100171.09;4919131;29;20412;-73
2021/11/09 10:23:07;;;;;;;1.80;1.17;;;;;;;10.33;76.52;100195.88;4922205;29;20074;-63
2021/11/09 10:25:59;;;;;;;4.47;1.00;;;;;;;10.33;71.08;100201.19;4931057;28;20051;-66
2021/11/09 10:28:46;;;;;;;3.63;1.10;;;;;;;10.33;64.27;100210.03;4915076;29;20056;-66
2021/11/09 10:31:31;;;;;;;3.25;1.10;;;;;;;10.85;63.94;100205.78;4905956;29;20050;-63
2021/11/09 10:34:29;;;;;;;;;;;;;;;11.22;72.91;100214.06;4913132;29;20524;-66
2021/11/09 10:37:24;;;;;;;6.30;1.23;;;;;;;11.30;60.85;100213.06;4946024;29;19989;-65
2021/11/09 10:40:24;;;;;;;4.68;1.48;;;;;;;12.42;55.50;100219.91;4932349;28;20078;-68
2021/11/09 10:43:10;;;;;;;3.78;1.30;;;;;;;13.08;49.76;100223.78;4936827;29;20531;-65
2021/11/09 10:45:55;;;;;;;5.75;1.27;;;;;;;12.53;46.57;100231.19;4931787;29;20054;-67
2021/11/09 10:48:43;;;;;;;3.30;1.23;;;;;;;12.03;49.82;100228.66;4932366;29;20103;-64
2021/11/09 10:51:54;;;;;;;2.60;1.00;;;;;;;10.46;54.96;100234.59;4922674;29;20051;-64
2021/11/09 10:55:15;;;;;;;4.15;1.05;;;;;;;9.60;58.77;100240.78;4930039;29;20101;-64
2021/11/09 11:06:35;;;;;;;3.05;1.27;;;;;;;9.55;60.58;100280.50;4945647;29;20722;-65
2021/11/09 11:09:21;;;;;;;2.55;1.15;;;;;;;10.41;57.50;100287.69;4922511;29;20081;-64
2021/11/09 11:12:10;;;;;;;5.65;1.20;;;;;;;10.75;54.91;100304.06;4931823;29;20054;-65
2021/11/09 11:15:08;;;;;;;2.60;0.90;;;;;;;10.29;50.58;100305.50;4941767;29;20062;-64
2021/11/09 11:17:52;;;;;;;3.97;1.00;;;;;;;10.26;50.96;100313.47;4926919;29;20057;-63
2021/11/09 11:20:37;;;;;;;3.60;1.00;;;;;;;9.87;52.76;100309.38;4942547;29;20046;-65
2021/11/09 11:23:23;;;;;;;3.05;1.00;;;;;;;8.16;57.71;100323.47;4923962;29;20225;-66
2021/11/09 11:26:09;;;;;;;8.65;1.10;;;;;;;8.43;59.58;100345.44;4951620;28;20054;-66
2021/11/09 11:28:54;;;;;;;4.75;0.90;;;;;;;8.04;63.26;100347.25;4941134;29;20404;-69
2021/11/09 11:31:39;;;;;;;4.22;0.98;;;;;;;8.60;62.04;100351.59;4947396;28;20422;-69
2021/11/09 11:34:26;;;;;;;3.17;1.02;;;;;;;8.54;60.83;100356.88;4919592;29;20088;-63
2021/11/09 11:37:12;;;;;;;3.28;0.90;;;;;;;8.46;61.67;100358.66;4943954;28;20121;-63
2021/11/09 11:40:03;;;;;;;3.40;1.05;;;;;;;7.97;61.92;100375.44;4945063;29;20605;-66
2021/11/09 11:42:51;;;;;;;3.25;1.10;;;;;;;7.24;64.67;100368.25;4949431;29;20126;-63
2021/11/09 11:45:49;;;;;;;6.15;1.35;;;;;;;6.98;69.25;100376.97;4945403;29;20077;-64
2021/11/09 11:49:10;;;;;;;2.30;1.00;;;;;;;6.59;73.45;100375.03;4944673;29;20055;-72
2021/11/09 11:51:54;;;;;;;4.38;1.00;;;;;;;5.85;75.47;100383.28;4943950;28;20062;-71
2021/11/09 11:55:04;;;;;;;3.50;1.30;;;;;;;5.73;79.73;100402.44;4924436;29;20062;-71
2021/11/09 11:58:10;;;;;;;6.07;1.30;;;;;;;5.95;82.77;100401.81;4943602;29;20055;-71
2021/11/09 12:00:56;;;;;;;6.70;1.13;;;;;;;5.97;81.33;100410.56;4933665;29;20050;-69
2021/11/09 12:03:41;;;;;;;4.70;1.20;;;;;;;6.20;79.21;100427.44;4947076;29;20523;-69
2021/11/09 12:06:26;;;;;;;;;;;;;;;6.49;78.67;100427.66;4943062;28;20479;-69
2021/11/09 12:09:32;;;;;;;3.72;1.02;;;;;;;5.80;78.85;100425.31;4918052;29;19929;-73
2021/11/09 12:12:17;;;;;;;3.53;1.00;;;;;;;5.56;80.05;100439.94;4940524;29;20054;-69
2021/11/09 12:15:08;;;;;;;8.95;1.30;;;;;;;5.07;83.77;100449.03;4945576;29;20095;-71
2021/11/09 12:17:53;;;;;;;6.22;1.48;;;;;;;4.95;85.96;100441.88;4933376;29;20345;-71
2021/11/09 12:20:42;;;;;;;5.18;1.10;;;;;;;4.93;87.38;100467.25;4930998;28;20054;-73
2021/11/09 12:23:30;;;;;;;3.00;1.38;;;;;;;5.29;87.14;100477.34;4931174;29;20050;-68
2021/11/09 12:26:50;;;;;;;3.78;1.08;;;;;;;5.37;84.91;100482.72;4933289;29;20570;-70
2021/11/09 12:29:35;;;;;;;3.53;0.93;;;;;;;5.37;85.24;100488.84;4929811;29;20058;-68
2021/11/09 12:32:23;;;;;;;4.80;1.05;;;;;;;5.43;85.40;100493.28;4946442;28;20120;-69
2021/11/09 12:35:14;;;;;;;2.47;0.93;;;;;;;5.59;84.70;100505.75;4952136;28;20054;-72
2021/11/09 12:38:02;;;;;;;6.57;1.40;;;;;;;5.35;83.19;100508.09;4933405;29;20081;-70
2021/11/09 12:40:50;;;;;;;6.22;1.40;;;;;;;4.94;85.48;100518.03;4937914;28;20050;-77
2021/11/09 12:43:43;;;;;;;3.45;1.08;;;;;;;4.91;87.81;100511.00;4934928;29;20071;-66
2021/11/09 12:46:41;;;;;;;2.47;1.00;;;;;;;4.66;90.04;100535.16;4937532;29;20320;-70
2021/11/09 12:49:35;;;;;;;8.98;1.60;;;;;;;4.76;89.94;100537.03;4947205;29;20069;-70
2021/11/09 12:52:19;;;;;;;5.50;1.10;;;;;;;4.75;90.45;100531.78;4916128;29;20050;-68
2021/11/09 12:55:12;;;;;;;7.35;1.15;;;;;;;4.34;90.58;100540.72;4929999;29;20101;-66
2021/11/09 12:58:15;;;;;;;3.85;0.98;;;;;;;4.10;93.50;100550.81;4939959;29;20070;-70
2021/11/09 13:01:20;;;;;;;8.65;1.20;;;;;;;3.94;95.53;100548.75;4919371;29;20647;-72
2021/11/09 13:10:12;;;;;;;2.55;1.00;;;;;;;3.92;95.53;100571.47;4942158;29;20086;-69
2021/11/09 13:12:57;;;;;;;7.70;0.90;;;;;;;3.67;95.54;100567.47;4921422;29;20582;-72
2021/11/09 13:15:42;;;;;;;5.65;0.95;;;;;;;3.40;96.49;100576.53;4934813;29;20137;-64
2021/11/09 13:18:31;;;;;;;5.25;1.20;;;;;;;3.42;98.26;100580.94;4934895;29;20050;-65
2021/11/09 13:21:24;;;;;;;5.00;1.25;;;;;;;3.44;99.00;100588.84;4948833;29;20571;-68
2021/11/09 13:24:18;;;;;;;7.57;1.10;;;;;;;3.42;100.00;100595.78;4933553;29;20062;-73
2021/11/09 13:27:08;;;;;;;2.55;1.13;;;;;;;3.21;100.00;100604.03;4939093;28;20074;-70
2021/11/09 13:29:53;;;;;;;3.92;1.13;;;;;;;3.18;100.00;100609.22;4936281;28;20187;-71
2021/11/09 13:32:38;;;;;;;4.75;0.95;;;;;;;3.26;100.00;100607.66;4931693;29;20101;-73
2021/11/09 13:35:32;;;;;;;4.28;1.20;;;;;;;3.23;100.00;100610.22;4926231;29;20070;-69
2021/11/09 13:38:51;;;;;;;2.85;0.90;;;;;;;3.08;100.00;100625.56;4946862;29;20125;-69
2021/11/09 13:41:41;;;;;;;4.25;1.52;;;;;;;2.99;100.00;100630.59;4917991;29;20050;-66
2021/11/09 13:44:32;;;;;;;5.47;1.05;;;;;;;2.93;100.00;100632.19;4933029;29;20099;-69
2021/11/09 13:47:32;;;;;;;2.40;1.10;;;;;;;2.98;100.00;100641.94;4929620;29;20062;-67
2021/11/09 13:50:17;;;;;;;14.90;1.50;;;;;;;2.84;100.00;100666.00;4934704;29;20411;-67
2021/11/09 13:53:01;;;;;;;9.02;1.48;;;;;;;2.71;100.00;100651.75;4947362;29;20050;-66
2021/11/09 13:55:46;;;;;;;6.43;1.13;;;;;;;2.51;100.00;100654.69;4932340;29;20110;-67
2021/11/09 13:58:32;;;;;;;5.00;1.00;;;;;;;2.43;100.00;100671.91;4941163;29;20083;-67
2021/11/09 14:01:34;;;;;;;5.22;1.90;;;;;;;2.47;100.00;100668.53;4946295;29;20078;-66
2021/11/09 14:04:56;;;;;;;3.78;1.23;;;;;;;2.45;100.00;100672.84;4930017;29;20137;-68
2021/11/09 14:11:09;;;;;;;7.35;1.33;;;;;;;2.62;100.00;100698.63;4927374;29;20459;-64
2021/11/09 14:16:57;;;;;;;9.55;1.20;;;;;;;2.41;100.00;100710.25;4932059;29;20055;-65
2021/11/09 14:19:42;;;;;;;5.38;1.48;;;;;;;2.33;100.00;100720.50;4928012;29;20130;-68
2021/11/09 14:22:29;;;;;;;3.22;1.00;;;;;;;2.37;100.00;100708.41;4942013;29;20098;-67
2021/11/09 14:25:17;;;;;;;5.35;1.27;;;;;;;2.20;100.00;100723.63;4913968;29;20487;-64
2021/11/09 14:28:02;;;;;;;3.60;1.33;;;;;;;2.07;100.00;100729.34;4924242;29;20522;-68
2021/11/09 14:30:47;;;;;;;9.73;2.40;;;;;;;2.23;100.00;100742.03;4943075;29;20062;-67
2021/11/09 14:33:32;;;;;;;4.70;1.20;;;;;;;2.38;100.00;100745.06;4929000;29;20138;-66
2021/11/09 14:36:27;;;;;;;6.28;1.95;;;;;;;2.45;100.00;100754.00;4929209;29;20064;-64
2021/11/09 14:39:26;;;;;;;8.52;1.48;;;;;;;2.39;100.00;100764.28;4911755;29;20144;-65
2021/11/09 14:42:19;;;;;;;6.97;1.95;;;;;;;2.33;100.00;100759.75;4926852;29;20105;-66
2021/11/09 14:48:19;;;;;;;5.70;0.95;;;;;;;2.12;100.00;100767.00;4933609;29;20062;-66
2021/11/09 14:51:17;;;;;;;5.07;1.20;;;;;;;2.08;100.00;100770.34;4939437;29;20058;-63
2021/11/09 14:54:15;;;;;;;3.38;0.90;;;;;;;2.20;100.00;100777.66;4946973;29;20346;-65
2021/11/09 14:57:07;;;;;;;7.80;1.30;;;;;;;2.30;100.00;100774.47;4939804;29;20139;-67
2021/11/09 15:00:06;;;;;;;2.67;0.90;;;;;;;2.29;100.00;100773.59;4949877;29;20534;-68
2021/11/09 15:03:03;;;;;;;2.83;1.10;;;;;;;2.13;100.00;100783.59;4935224;29;20062;-67
2021/11/09 15:05:50;;;;;;;4.55;0.82;;;;;;;1.93;100.00;100795.19;4949796;29;20881;-67
2021/11/09 15:11:55;;;;;;;2.97;0.80;;;;;;;2.06;100.00;100794.69;4906361;29;20098;-65
2021/11/09 15:30:04;;;;;;;7.40;1.98;;;;;;;2.06;100.00;100819.09;4904188;29;20068;-65
2021/11/09 15:32:49;;;;;;;3.67;1.30;;;;;;;2.02;100.00;100837.28;4894854;29;20078;-65
2021/11/09 15:35:45;;;;;;;3.42;1.08;;;;;;;1.88;100.00;100833.34;4895136;29;20087;-64
2021/11/09 15:38:30;;;;;;;3.25;1.10;;;;;;;1.80;100.00;100834.84;4894639;29;20099;-66
2021/11/09 15:41:17;;;;;;;3.35;1.63;;;;;;;1.96;100.00;100848.44;4873777;29;20119;-63
2021/11/09 15:44:02;;;;;;;4.07;1.30;;;;;;;2.02;100.00;100852.97;4894578;29;20055;-65
2021/11/09 15:46:49;;;;;;;2.75;1.30;;;;;;;2.05;100.00;100850.47;4908887;29;20055;-67
2021/11/09 15:49:34;;;;;;;2.83;1.10;;;;;;;1.97;100.00;100859.81;4918854;29;20054;-64
2021/11/09 15:52:20;;;;;;;5.13;1.23;;;;;;;1.95;100.00;100872.84;4926641;29;20420;-67
2021/11/09 15:55:05;;;;;;;;;;;;;;;1.88;100.00;100880.41;4949506;29;20066;-62
2021/11/09 15:57:53;;;;;;;6.38;1.13;;;;;;;1.81;100.00;100873.19;4929851;29;19925;-66
2021/11/09 16:00:39;;;;;;;2.55;1.27;;;;;;;1.82;100.00;100883.72;4948919;29;20483;-66
2021/11/09 16:03:24;;;;;;;3.45;1.17;;;;;;;2.00;100.00;100896.50;4930259;29;20599;-66
2021/11/09 16:06:09;;;;;;;5.20;1.38;;;;;;;1.92;100.00;100892.75;4933888;29;20103;-66